createdAt,value
2023-05-02T00:03:13.809Z,2.26
2023-05-02T00:08:17.110Z,2.26
2023-05-02T00:13:19.516Z,2.20
2023-05-02T00:18:21.892Z,1.72
2023-05-02T00:23:24.434Z,2.14
2023-05-02T00:28:27.646Z,1.58
2023-05-02T00:33:30.001Z,2.24
2023-05-02T00:38:32.396Z,1.43
2023-05-02T00:43:34.841Z,2.10
2023-05-02T00:48:37.258Z,1.88
2023-05-02T00:53:40.917Z,1.96
2023-05-02T00:58:44.571Z,1.71
2023-05-02T01:04:08.967Z,1.15
2023-05-02T01:09:18.036Z,1.88
2023-05-02T01:14:21.200Z,1.19
2023-05-02T01:19:29.604Z,1.77
2023-05-02T01:25:06.401Z,1.14
2023-05-02T01:30:09.688Z,1.45
2023-05-02T01:35:15.337Z,1.00
2023-05-02T01:40:19.885Z,1.56
2023-05-02T01:45:24.288Z,0.80
2023-05-02T01:50:27.525Z,1.50
2023-05-02T01:55:30.072Z,-0.22
2023-05-02T02:00:33.318Z,1.25
2023-05-02T02:05:37.041Z,0.49
2023-05-02T02:10:44.257Z,0.28
2023-05-02T02:15:51.606Z,1.21
2023-05-02T02:20:54.721Z,1.33
2023-05-02T02:25:58.144Z,1.33
2023-05-02T02:31:00.678Z,1.33
2023-05-02T02:36:16.444Z,1.37
2023-05-02T02:41:40.995Z,0.96
2023-05-02T02:46:51.341Z,0.85
2023-05-02T02:52:15.932Z,1.36
2023-05-02T02:57:21.465Z,1.31
2023-05-02T03:02:28.828Z,0.87
2023-05-02T03:07:31.811Z,0.57
2023-05-02T03:12:36.954Z,1.41
2023-05-02T03:17:40.420Z,1.45
2023-05-02T03:22:42.893Z,1.24
2023-05-02T03:27:45.277Z,1.10
2023-05-02T03:32:48.444Z,1.08
2023-05-02T03:37:51.770Z,1.23
2023-05-02T03:42:54.230Z,1.28
2023-05-02T03:48:03.372Z,2.15
2023-05-02T03:53:06.619Z,2.31
2023-05-02T03:58:17.770Z,2.31
2023-05-02T04:03:22.232Z,2.29
2023-05-02T04:08:24.949Z,2.81
2023-05-02T04:13:29.545Z,2.99
2023-05-02T04:18:33.280Z,2.54
2023-05-02T04:23:38.398Z,2.82
2023-05-02T04:28:41.389Z,3.24
2023-05-02T04:33:45.791Z,2.86
2023-05-02T04:38:48.991Z,3.66
2023-05-02T04:43:53.173Z,3.63
2023-05-02T04:48:55.675Z,4.12
2023-05-02T04:53:58.110Z,3.68
2023-05-02T04:59:00.482Z,4.31
2023-05-02T05:04:04.117Z,4.29
2023-05-02T05:09:06.717Z,4.02
2023-05-02T05:14:12.247Z,4.02
2023-05-02T05:19:17.693Z,5.15
2023-05-02T05:24:20.211Z,4.90
2023-05-02T05:29:23.973Z,5.91
2023-05-02T05:34:27.548Z,5.79
2023-05-02T05:39:33.698Z,6.60
2023-05-02T05:44:38.963Z,6.89
2023-05-02T05:49:41.720Z,7.18
2023-05-02T05:54:46.262Z,4.27
2023-05-02T05:59:49.323Z,6.99
2023-05-02T06:04:52.706Z,7.22
2023-05-02T06:09:58.528Z,8.02
2023-05-02T06:15:02.169Z,8.18
2023-05-02T06:20:07.565Z,8.58
2023-05-02T06:25:10.306Z,8.63
2023-05-02T06:30:13.010Z,8.13
2023-05-02T06:35:15.676Z,8.90
2023-05-02T06:40:18.186Z,9.16
2023-05-02T06:45:20.595Z,9.60
2023-05-02T06:50:29.304Z,9.54
2023-05-02T06:55:33.296Z,9.32
2023-05-02T07:00:35.805Z,10.08
2023-05-02T07:05:38.363Z,9.98
2023-05-02T07:10:40.733Z,10.13
2023-05-02T07:15:43.637Z,10.64
2023-05-02T07:20:46.262Z,10.80
2023-05-02T07:25:49.103Z,10.91
2023-05-02T07:30:51.538Z,10.78
2023-05-02T07:35:53.986Z,11.24
2023-05-02T07:40:59.531Z,11.38
2023-05-02T07:46:06.031Z,11.36
2023-05-02T07:51:09.650Z,11.62
2023-05-02T07:56:13.358Z,11.28
2023-05-02T08:01:15.911Z,11.81
2023-05-02T08:06:18.450Z,12.08
2023-05-02T08:13:42.659Z,12.27
2023-05-02T08:18:45.081Z,12.14
2023-05-02T08:23:47.461Z,11.88
2023-05-02T08:28:49.824Z,11.89
2023-05-02T08:33:52.474Z,12.52
2023-05-02T08:38:55.051Z,12.29
2023-05-02T08:43:58.239Z,12.53
2023-05-02T08:49:00.630Z,12.75
2023-05-02T08:54:07.904Z,12.91
2023-05-02T08:59:10.293Z,13.01
2023-05-02T09:04:12.839Z,13.33
2023-05-02T09:09:16.157Z,12.61
2023-05-02T09:14:19.672Z,12.88
2023-05-02T09:19:26.624Z,13.39
2023-05-02T09:24:30.039Z,13.30
2023-05-02T09:29:38.264Z,13.59
2023-05-02T09:34:40.693Z,13.77
2023-05-02T09:39:43.950Z,13.82
2023-05-02T09:44:48.433Z,14.25
2023-05-02T09:49:50.801Z,14.11
2023-05-02T09:54:53.682Z,13.86
2023-05-02T09:59:57.515Z,13.75
2023-05-02T10:05:01.245Z,13.34
2023-05-02T10:10:07.456Z,13.61
2023-05-02T10:15:22.530Z,14.19
2023-05-02T10:21:37.127Z,14.35
2023-05-02T10:26:39.707Z,13.97
2023-05-02T10:31:44.790Z,14.44
2023-05-02T10:36:47.639Z,14.54
2023-05-02T10:41:50.320Z,14.71
2023-05-02T10:46:52.742Z,14.80
2023-05-02T10:51:56.397Z,14.81
2023-05-02T10:57:06.824Z,14.59
2023-05-02T11:02:22.017Z,15.19
2023-05-02T11:07:24.825Z,15.13
2023-05-02T11:12:52.875Z,15.27
2023-05-02T11:18:14.793Z,15.30
2023-05-02T11:23:17.412Z,15.21
2023-05-02T11:28:39.700Z,15.32
2023-05-02T11:33:42.074Z,14.97
2023-05-02T11:38:44.673Z,15.05
2023-05-02T11:43:47.160Z,15.04
2023-05-02T11:48:49.564Z,15.26
2023-05-02T11:53:53.705Z,15.14
2023-05-02T11:59:03.842Z,15.60
2023-05-02T12:04:08.396Z,15.75
2023-05-02T12:09:14.018Z,14.86
2023-05-02T12:14:16.678Z,15.34
2023-05-02T12:19:20.680Z,15.85
2023-05-02T12:24:23.209Z,15.75
2023-05-02T12:29:44.682Z,15.28
2023-05-02T12:34:47.139Z,15.81
2023-05-02T12:39:50.253Z,16.00
2023-05-02T12:44:53.662Z,15.86
2023-05-02T12:49:59.652Z,14.86
2023-05-02T12:55:19.538Z,16.21
2023-05-02T13:00:23.163Z,16.12
2023-05-02T13:05:26.100Z,16.39
2023-05-02T13:10:28.698Z,15.99
2023-05-02T13:15:31.296Z,16.22
2023-05-02T13:20:33.744Z,15.54
2023-05-02T13:25:36.258Z,16.13
2023-05-02T13:30:40.161Z,16.10
2023-05-02T13:35:42.834Z,16.35
2023-05-02T13:40:45.404Z,16.30
2023-05-02T13:45:49.261Z,16.15
2023-05-02T13:50:51.799Z,16.07
2023-05-02T13:55:55.432Z,16.30
2023-05-02T14:00:58.259Z,15.98
2023-05-02T14:06:01.863Z,15.95
2023-05-02T14:11:07.169Z,16.07
2023-05-02T14:16:09.876Z,15.75
2023-05-02T14:21:12.396Z,16.15
2023-05-02T14:26:15.681Z,16.10
2023-05-02T14:31:18.075Z,15.58
2023-05-02T14:36:20.750Z,15.63
2023-05-02T14:41:24.503Z,15.72
2023-05-02T14:46:26.993Z,15.60
2023-05-02T14:51:29.379Z,15.70
2023-05-02T14:56:31.955Z,15.11
2023-05-02T15:01:34.573Z,15.40
2023-05-02T15:06:37.350Z,14.79
2023-05-02T15:11:40.141Z,14.71
2023-05-02T15:16:42.719Z,14.95
2023-05-02T15:21:45.178Z,15.05
2023-05-02T15:26:47.589Z,14.85
2023-05-02T15:31:50.676Z,13.30
2023-05-02T15:36:53.281Z,14.07
2023-05-02T15:41:55.834Z,14.65
2023-05-02T15:46:59.400Z,13.94
2023-05-02T15:52:03.340Z,14.57
2023-05-02T15:57:05.902Z,13.01
2023-05-02T16:02:08.390Z,12.41
2023-05-02T16:07:11.488Z,14.40
2023-05-02T16:12:15.045Z,12.44
2023-05-02T16:17:17.502Z,14.35
2023-05-02T16:22:20.097Z,14.31
2023-05-02T16:27:23.925Z,12.57
2023-05-02T16:32:26.490Z,12.37
2023-05-02T16:37:29.246Z,14.09
2023-05-02T16:42:31.933Z,14.01
2023-05-02T16:47:36.068Z,13.04
2023-05-02T16:52:38.631Z,13.11
2023-05-02T16:57:42.725Z,13.12
2023-05-02T17:02:45.305Z,11.52
2023-05-02T17:07:47.862Z,11.52
2023-05-02T17:12:51.362Z,10.33
2023-05-02T17:17:53.938Z,11.11
2023-05-02T17:22:56.708Z,12.90
2023-05-02T17:27:59.337Z,12.34
2023-05-02T17:33:02.125Z,11.20
2023-05-02T17:38:04.903Z,12.17
2023-05-02T17:43:07.815Z,12.88
2023-05-02T17:48:10.839Z,12.35
2023-05-02T17:53:13.717Z,11.04
2023-05-02T17:58:16.984Z,11.04
2023-05-02T18:03:19.685Z,10.00
2023-05-02T18:08:22.424Z,11.68
2023-05-02T18:13:26.593Z,9.36
2023-05-02T18:18:29.099Z,12.34
2023-05-02T18:23:31.669Z,9.30
2023-05-02T18:28:35.778Z,11.48
2023-05-02T18:33:38.352Z,11.34
2023-05-02T18:38:42.426Z,11.27
2023-05-02T18:43:44.937Z,11.34
2023-05-02T18:48:47.520Z,11.91
2023-05-02T18:53:51.787Z,11.52
2023-05-02T18:58:56.853Z,11.66
2023-05-02T19:04:01.279Z,11.01
2023-05-02T19:09:05.820Z,11.40
2023-05-02T19:14:08.441Z,11.56
2023-05-02T19:19:12.538Z,11.35
2023-05-02T19:24:15.114Z,11.32
2023-05-02T19:29:17.506Z,10.92
2023-05-02T19:34:20.196Z,11.32
2023-05-02T19:39:22.681Z,11.26
2023-05-02T19:44:25.264Z,11.22
2023-05-02T19:49:27.748Z,10.92
2023-05-02T19:54:31.034Z,10.46
2023-05-02T19:59:33.646Z,10.05
2023-05-02T20:04:36.216Z,9.96
2023-05-02T20:09:40.216Z,8.48
2023-05-02T20:14:42.698Z,10.83
2023-05-02T20:19:46.413Z,9.96
2023-05-02T20:24:48.967Z,10.32
2023-05-02T20:29:52.439Z,8.65
2023-05-02T20:34:54.890Z,9.62
2023-05-02T20:39:57.450Z,8.42
2023-05-02T20:45:02.346Z,9.67
2023-05-02T20:50:09.773Z,8.43
2023-05-02T20:55:12.503Z,8.57
2023-05-02T21:00:16.420Z,8.45
2023-05-02T21:05:18.883Z,8.58
2023-05-02T21:10:24.113Z,8.09
2023-05-02T21:15:27.177Z,8.54
2023-05-02T21:20:30.521Z,9.65
2023-05-02T21:25:34.449Z,10.18
2023-05-02T21:30:36.851Z,9.20
2023-05-02T21:35:39.342Z,9.19
2023-05-02T21:40:43.286Z,10.10
2023-05-02T21:45:50.258Z,8.32
2023-05-02T21:50:52.784Z,9.42
2023-05-02T21:55:55.336Z,8.13
2023-05-02T22:00:57.969Z,8.17
2023-05-02T22:06:06.664Z,8.10
2023-05-02T22:11:10.856Z,8.17
2023-05-02T22:16:13.427Z,7.58
2023-05-02T22:21:16.361Z,9.04
2023-05-02T22:26:18.860Z,7.63
2023-05-02T22:31:21.803Z,7.24
2023-05-02T22:36:25.391Z,9.52
2023-05-02T22:41:27.929Z,8.71
2023-05-02T22:46:30.437Z,7.71
2023-05-02T22:51:33.666Z,9.44
2023-05-02T22:56:36.097Z,7.41
2023-05-02T23:01:38.932Z,7.69
2023-05-02T23:06:41.570Z,8.81
2023-05-02T23:11:44.067Z,7.07
2023-05-02T23:16:46.963Z,7.61
2023-05-02T23:21:49.422Z,6.21
2023-05-02T23:26:52.473Z,7.68
2023-05-02T23:31:55.860Z,8.63
2023-05-02T23:36:58.334Z,8.96
2023-05-02T23:42:01.198Z,8.90
2023-05-02T23:47:03.833Z,8.82
2023-05-02T23:52:06.696Z,8.76
2023-05-02T23:57:09.659Z,8.70
